Airfield :
LOGIN :

Register | Disclaimer

   EN    FR    IT 

 










Legend :    VFR   Marginal VFR   IFR   Intensive IFR   Very Intensive IFR
Visi :
Ceiling :
>= 8 km
>= 3000ft
5 to 8 km
1000 to 3000 ft
1500m to 5 km
500 to 1000 ft
800 to 1500m
200 to 500 ft
< 800m
< 200 ft
Symbols :   Thunderstorms  Fog  Heavy snow  Heavy precipitations  Wind > 20 kt
SIGMETs :     Misc.  Thunderstorms  Icing  Turbulence  Mountain Waves  Volcanic Ashes






- Airport Elevation : 120 ft
- IATA code : MME


EGNV - Durham Tees valley

CURRENT METAR :
  • 071150Z 22012KT 9999 FEW020 BKN028 09/06 Q1007

EXPIRED METARs :
  • 071120Z 22011KT 9999 FEW020 SCT030 09/06 Q1007
  • 071050Z 22012KT 9999 FEW022 SCT030 09/06 Q1008
  • 071020Z 22009KT 9999 FEW028 SCT035 09/05 Q1008
  • 070950Z 22009KT 9999 FEW025 SCT035 07/05 Q1008
  • 070920Z 20009KT 9999 FEW026 SCT034 07/05 Q1008
  • 070850Z 23007KT 9999 FEW026 06/04 Q1007

TAF TAF EGNV
Valid from the 07 at 12:00 until the 07 at 21:00 UTC


071104Z 0712/0721 21007KT 9999 FEW020
TEMPO 0712/0717 BKN014
BECMG 0714/0717 22017KT BKN009
PROB30
TEMPO 0717/0721 22022G35KT SCT009
ATIS : +44 9012 018 111



MET'MAP, your aeronautical weather chart ! - Copyright ORBIFLY December 2007 - Disclaimer

ORBIFLY MET'MAP TEAM :

Programming & Development : Alexandra Zaïnal
Concept & original design : Baudouin d'Aumeries
Assistance for programming : Marc-Olivier Méhu
Technical & hardware support : Manuel Goepfert

Contact : metmap@orbifly.com




SOURCES & CREDITS :

   NOAA